Time;durP1;ratioP1;P1;durP2;ratioP2;P2;SDS_P1;SDS_P2;PMS_P1;PMS_P2;Temp;Humidity;BMP_temperature;BMP_pressure;BME280_temperature;BME280_humidity;BME280_pressure;Samples;Min_cycle;Max_cycle;Signal;HPM_P1;HPM_P2
2023/05/22 00:00:53;;;;;;;6.73;4.43;;;18.90;69.20;;;;;;5003835;28;20032;-78
2023/05/22 00:03:19;;;;;;;9.02;4.47;;;18.80;69.20;;;;;;5021331;28;20032;-78
2023/05/22 00:05:47;;;;;;;7.95;4.72;;;18.80;69.40;;;;;;5023084;28;20033;-78
2023/05/22 00:08:12;;;;;;;7.85;4.43;;;18.70;69.40;;;;;;5025215;28;20197;-79
2023/05/22 00:10:38;;;;;;;8.93;5.10;;;18.70;69.50;;;;;;5015414;28;20331;-77
2023/05/22 00:13:04;;;;;;;8.65;4.82;;;18.70;69.70;;;;;;4999425;28;20238;-78
2023/05/22 00:15:33;;;;;;;7.95;4.55;;;18.60;69.70;;;;;;5020644;28;21494;-78
2023/05/22 00:17:59;;;;;;;8.37;4.47;;;18.60;69.90;;;;;;5011388;28;20584;-78
2023/05/22 00:20:26;;;;;;;7.55;4.63;;;18.50;69.90;;;;;;5021297;28;20390;-78
2023/05/22 00:22:53;;;;;;;11.43;4.95;;;18.50;70.00;;;;;;5042684;28;20025;-78
2023/05/22 00:25:19;;;;;;;7.80;4.43;;;18.50;70.00;;;;;;5018215;28;20028;-78
2023/05/22 00:27:47;;;;;;;8.30;4.93;;;18.40;70.20;;;;;;5000615;28;20123;-78
2023/05/22 00:30:13;;;;;;;7.73;4.60;;;18.40;70.60;;;;;;5009331;28;20397;-78
2023/05/22 00:32:39;;;;;;;8.40;4.50;;;18.30;70.40;;;;;;5031728;28;20397;-78
2023/05/22 00:35:05;;;;;;;7.07;4.50;;;18.30;70.60;;;;;;5031009;28;20115;-78
2023/05/22 00:37:31;;;;;;;6.95;4.40;;;18.30;70.70;;;;;;5030724;28;20044;-78
2023/05/22 00:39:57;;;;;;;9.27;5.07;;;18.20;70.80;;;;;;5028307;28;20647;-77
2023/05/22 00:42:23;;;;;;;10.00;4.95;;;18.20;70.90;;;;;;5022971;28;20541;-78
2023/05/22 00:44:49;;;;;;;7.82;4.82;;;18.20;70.90;;;;;;5024869;28;20059;-78
2023/05/22 00:47:15;;;;;;;9.03;4.73;;;18.10;71.10;;;;;;5023483;28;20182;-78
2023/05/22 00:49:41;;;;;;;8.98;4.88;;;18.00;71.00;;;;;;5024733;28;20130;-78
2023/05/22 00:52:08;;;;;;;8.63;5.10;;;18.00;71.20;;;;;;5000790;28;20701;-77
2023/05/22 00:54:35;;;;;;;9.32;5.10;;;18.00;71.40;;;;;;5030077;28;20134;-78
2023/05/22 00:57:02;;;;;;;9.67;5.10;;;18.00;71.40;;;;;;5016815;28;20298;-78
2023/05/22 00:59:30;;;;;;;7.60;4.90;;;17.90;71.60;;;;;;5005378;28;20087;-77
2023/05/22 01:01:56;;;;;;;8.43;4.38;;;17.90;72.50;;;;;;5022720;28;20305;-77
2023/05/22 01:04:23;;;;;;;7.93;4.60;;;17.80;71.60;;;;;;5030949;28;20366;-78
2023/05/22 01:06:49;;;;;;;9.05;5.13;;;17.80;71.80;;;;;;5016166;28;20036;-78
2023/05/22 01:09:15;;;;;;;9.93;5.10;;;17.80;71.90;;;;;;5022655;28;20040;-78
2023/05/22 01:11:53;;;;;;;10.13;4.95;;;17.70;71.90;;;;;;5035009;28;20116;-78
2023/05/22 01:14:43;;;;;;;8.32;4.90;;;17.70;73.40;;;;;;4998501;28;20033;-78
2023/05/22 01:17:21;;;;;;;9.38;4.70;;;17.60;73.00;;;;;;5025557;28;20169;-78
2023/05/22 01:20:04;;;;;;;8.90;4.43;;;17.60;72.70;;;;;;5036184;28;20109;-77
2023/05/22 01:23:08;;;;;;;8.32;4.72;;;17.60;72.80;;;;;;5010088;28;20033;-77
2023/05/22 01:25:58;;;;;;;7.43;4.40;;;17.60;74.30;;;;;;5025179;28;20037;-77
2023/05/22 01:28:24;;;;;;;7.50;4.57;;;17.50;74.30;;;;;;5010184;28;20767;-77
2023/05/22 01:30:53;;;;;;;8.23;5.10;;;17.50;72.50;;;;;;5022587;28;20114;-78
2023/05/22 01:33:24;;;;;;;7.87;4.47;;;17.40;73.10;;;;;;5019717;28;20392;-78
2023/05/22 01:35:53;;;;;;;10.52;4.85;;;17.40;73.00;;;;;;5010804;28;20725;-77
2023/05/22 01:38:19;;;;;;;9.50;5.00;;;17.30;72.90;;;;;;5016656;28;20403;-78
2023/05/22 01:40:45;;;;;;;10.40;5.35;;;17.30;73.00;;;;;;5020226;28;20490;-78
2023/05/22 01:43:13;;;;;;;9.65;4.88;;;17.30;73.10;;;;;;5027665;28;20258;-78
2023/05/22 01:45:39;;;;;;;7.60;4.40;;;17.30;73.40;;;;;;4996664;28;20573;-77
2023/05/22 01:48:05;;;;;;;7.28;4.70;;;17.20;73.20;;;;;;5034443;28;20028;-78
2023/05/22 01:50:31;;;;;;;7.63;5.10;;;17.20;73.40;;;;;;5035682;28;20063;-77
2023/05/22 01:53:21;;;;;;;10.55;5.32;;;17.10;73.40;;;;;;5020431;28;20069;-78
2023/05/22 01:56:08;;;;;;;8.43;4.70;;;17.10;74.50;;;;;;5027655;28;20037;-78
2023/05/22 01:58:57;;;;;;;9.88;4.93;;;17.10;75.40;;;;;;5030283;28;20068;-78
2023/05/22 02:01:25;;;;;;;10.38;5.13;;;17.10;74.30;;;;;;5007933;28;20410;-78
2023/05/22 02:03:55;;;;;;;9.68;5.40;;;17.00;74.00;;;;;;5019532;28;20689;-78
2023/05/22 02:06:24;;;;;;;9.60;5.70;;;17.00;74.20;;;;;;5029081;28;20386;-78
2023/05/22 02:08:51;;;;;;;11.23;6.10;;;17.00;74.10;;;;;;5018486;28;20025;-78
2023/05/22 02:11:20;;;;;;;12.85;6.45;;;17.00;74.30;;;;;;5026893;28;20390;-78
2023/05/22 02:13:47;;;;;;;11.63;6.13;;;17.00;74.80;;;;;;5056731;28;20544;-78
2023/05/22 02:16:18;;;;;;;13.82;7.20;;;17.00;74.80;;;;;;5019758;28;20154;-77
2023/05/22 02:18:44;;;;;;;15.35;7.18;;;17.00;75.40;;;;;;4977705;28;20033;-78
2023/05/22 02:21:10;;;;;;;14.90;7.60;;;17.00;75.00;;;;;;5027187;28;20211;-78
2023/05/22 02:23:36;;;;;;;15.80;7.57;;;17.00;75.10;;;;;;5021705;28;20029;-78
2023/05/22 02:26:03;;;;;;;15.55;7.95;;;17.10;75.30;;;;;;5029882;28;20102;-78
2023/05/22 02:28:30;;;;;;;15.55;7.72;;;17.10;75.40;;;;;;5029168;28;20021;-78
2023/05/22 02:30:55;;;;;;;17.90;8.33;;;17.10;75.50;;;;;;5016187;28;20029;-77
2023/05/22 02:33:21;;;;;;;18.48;8.85;;;17.10;75.60;;;;;;4999552;28;20082;-78
2023/05/22 02:35:47;;;;;;;17.65;8.45;;;17.10;75.80;;;;;;5026160;28;20039;-78
2023/05/22 02:38:13;;;;;;;18.47;8.43;;;17.10;75.90;;;;;;5018119;28;20028;-78
2023/05/22 02:40:39;;;;;;;17.08;8.25;;;17.10;75.90;;;;;;5018311;28;20128;-78
2023/05/22 02:43:05;;;;;;;17.65;8.40;;;17.20;76.10;;;;;;5034149;28;20021;-78
2023/05/22 02:45:31;;;;;;;16.45;8.18;;;17.20;76.10;;;;;;5037593;28;20075;-77
2023/05/22 02:48:00;;;;;;;17.83;8.67;;;17.20;76.10;;;;;;5011702;28;20033;-78
2023/05/22 02:50:26;;;;;;;20.83;8.75;;;17.20;76.30;;;;;;5027831;28;20099;-77
2023/05/22 02:52:52;;;;;;;20.13;8.82;;;17.20;76.30;;;;;;5034787;28;20482;-79
2023/05/22 02:55:18;;;;;;;19.10;9.20;;;17.20;76.40;;;;;;5019527;28;20575;-77
2023/05/22 02:57:43;;;;;;;17.87;8.47;;;17.20;76.40;;;;;;5037840;28;20036;-78
2023/05/22 03:00:10;;;;;;;19.42;9.05;;;17.20;76.60;;;;;;5037067;28;20031;-77
2023/05/22 03:02:37;;;;;;;18.38;9.23;;;17.20;76.60;;;;;;5038488;28;20028;-78
2023/05/22 03:05:06;;;;;;;16.95;8.02;;;17.20;76.70;;;;;;5001567;28;20261;-77
2023/05/22 03:07:33;;;;;;;19.53;8.77;;;17.20;76.80;;;;;;5035539;28;20502;-78
2023/05/22 03:09:59;;;;;;;18.60;8.70;;;17.20;76.70;;;;;;5013042;28;21360;-79
2023/05/22 03:12:25;;;;;;;19.05;8.88;;;17.20;76.80;;;;;;5028887;28;20033;-78
2023/05/22 03:14:51;;;;;;;19.17;8.63;;;17.20;76.90;;;;;;5024627;28;20032;-79
2023/05/22 03:17:17;;;;;;;18.57;8.77;;;17.20;76.90;;;;;;5030772;28;20344;-78
2023/05/22 03:19:43;;;;;;;20.92;9.32;;;17.20;77.00;;;;;;4999781;28;20025;-78
2023/05/22 03:22:08;;;;;;;20.67;8.70;;;17.30;77.10;;;;;;5026426;28;20168;-78
2023/05/22 03:24:34;;;;;;;19.25;8.88;;;17.30;77.10;;;;;;5029245;28;20095;-76
2023/05/22 03:27:00;;;;;;;20.87;9.37;;;17.30;77.10;;;;;;5014181;28;20121;-77
2023/05/22 03:29:25;;;;;;;22.90;10.07;;;17.30;77.20;;;;;;5034892;28;20079;-78
2023/05/22 03:31:53;;;;;;;21.80;9.53;;;17.30;77.20;;;;;;5030365;28;20029;-79
2023/05/22 03:34:21;;;;;;;22.48;9.70;;;17.30;77.60;;;;;;5008203;28;20066;-78
2023/05/22 03:36:47;;;;;;;22.63;10.18;;;17.30;77.30;;;;;;5004826;28;20029;-78
2023/05/22 03:39:13;;;;;;;24.02;10.48;;;17.30;77.40;;;;;;5031199;28;20526;-77
2023/05/22 03:41:38;;;;;;;20.57;9.93;;;17.30;77.40;;;;;;5024021;28;20688;-79
2023/05/22 03:44:05;;;;;;;21.45;9.80;;;17.30;77.40;;;;;;5030427;28;20576;-78
2023/05/22 03:46:30;;;;;;;23.60;9.95;;;17.20;77.40;;;;;;5049670;28;20411;-78
2023/05/22 03:48:56;;;;;;;22.17;9.90;;;17.20;77.40;;;;;;5017894;28;20037;-78
2023/05/22 03:51:22;;;;;;;24.35;9.88;;;17.20;77.60;;;;;;5020287;28;20018;-78
2023/05/22 03:53:48;;;;;;;21.43;9.17;;;17.20;77.70;;;;;;5028860;28;20045;-78
2023/05/22 03:56:17;;;;;;;22.55;9.45;;;17.20;77.90;;;;;;5033805;28;20424;-79
2023/05/22 03:58:43;;;;;;;22.60;9.52;;;17.20;78.00;;;;;;5020947;28;20227;-78
2023/05/22 04:01:10;;;;;;;21.42;9.18;;;17.20;78.10;;;;;;5027200;28;20102;-77
2023/05/22 04:03:38;;;;;;;20.83;9.53;;;17.20;78.10;;;;;;5063023;28;20036;-77
2023/05/22 04:06:05;;;;;;;21.38;9.93;;;17.10;78.60;;;;;;4986301;28;20160;-79
2023/05/22 04:08:30;;;;;;;20.55;9.60;;;17.10;78.20;;;;;;5037029;28;20040;-79
2023/05/22 04:10:56;;;;;;;23.30;9.90;;;17.10;78.20;;;;;;5031476;28;20029;-78
2023/05/22 04:13:22;;;;;;;22.83;9.93;;;17.10;78.30;;;;;;5003213;28;20025;-77
2023/05/22 04:15:48;;;;;;;19.05;8.80;;;17.10;78.40;;;;;;5029646;28;20033;-79
2023/05/22 04:18:14;;;;;;;18.98;9.13;;;17.10;78.50;;;;;;5037207;28;20016;-78
2023/05/22 04:20:41;;;;;;;20.60;8.75;;;17.10;78.70;;;;;;5007148;28;20040;-78
2023/05/22 04:23:07;;;;;;;22.90;9.40;;;17.10;78.70;;;;;;5052218;28;20611;-78
2023/05/22 04:25:33;;;;;;;20.08;8.82;;;17.10;78.90;;;;;;5041983;28;20133;-77
2023/05/22 04:28:02;;;;;;;18.77;9.02;;;17.00;78.80;;;;;;5019701;28;20025;-77
2023/05/22 04:30:38;;;;;;;18.27;8.70;;;17.10;79.70;;;;;;5062751;28;20040;-77
2023/05/22 04:33:05;;;;;;;16.13;7.63;;;17.10;79.00;;;;;;5028222;28;20024;-78
2023/05/22 04:35:31;;;;;;;20.17;9.10;;;17.00;78.90;;;;;;5020897;28;20067;-78
2023/05/22 04:38:00;;;;;;;19.42;8.55;;;17.00;79.10;;;;;;5036045;28;20533;-78
2023/05/22 04:40:29;;;;;;;21.60;8.77;;;17.00;79.40;;;;;;5040052;28;20554;-78
2023/05/22 04:42:58;;;;;;;21.70;9.88;;;17.00;79.40;;;;;;5028470;28;20528;-77
2023/05/22 04:45:24;;;;;;;20.03;9.40;;;17.00;79.50;;;;;;5037867;28;20017;-79
2023/05/22 04:47:54;;;;;;;21.95;9.07;;;17.00;79.50;;;;;;5022457;28;20655;-78
2023/05/22 04:50:20;;;;;;;20.73;8.60;;;17.00;79.70;;;;;;5032353;28;20033;-78
2023/05/22 04:52:46;;;;;;;19.90;9.38;;;17.00;79.80;;;;;;5030479;28;20028;-78
2023/05/22 04:55:15;;;;;;;21.33;9.55;;;17.10;80.00;;;;;;5052805;28;20588;-77
2023/05/22 04:57:43;;;;;;;20.70;8.93;;;17.00;80.20;;;;;;5039124;28;20219;-78
2023/05/22 05:00:10;;;;;;;20.42;9.18;;;17.00;79.90;;;;;;5023682;28;20119;-78
2023/05/22 05:02:35;;;;;;;19.77;8.85;;;17.10;80.00;;;;;;5016381;28;20043;-78
2023/05/22 05:05:01;;;;;;;22.47;9.67;;;17.10;80.10;;;;;;5040793;28;20087;-78
2023/05/22 05:07:28;;;;;;;19.70;8.67;;;17.10;80.10;;;;;;4984597;28;20271;-79
2023/05/22 05:09:53;;;;;;;20.83;9.63;;;17.10;80.20;;;;;;5034627;28;20029;-77
2023/05/22 05:12:19;;;;;;;22.02;10.13;;;17.10;80.30;;;;;;5028092;28;20126;-79
2023/05/22 05:14:45;;;;;;;22.23;9.87;;;17.10;80.30;;;;;;5016239;28;20389;-78
2023/05/22 05:17:11;;;;;;;20.40;9.32;;;17.10;80.40;;;;;;5012646;28;20602;-78
2023/05/22 05:19:37;;;;;;;22.10;9.68;;;17.10;80.40;;;;;;5027267;28;20520;-78
2023/05/22 05:22:03;;;;;;;19.30;9.10;;;17.10;80.40;;;;;;4986122;28;20350;-79
2023/05/22 05:24:29;;;;;;;20.70;9.27;;;17.10;80.40;;;;;;5021480;28;20031;-78
2023/05/22 05:26:54;;;;;;;19.10;9.13;;;17.10;80.50;;;;;;5028052;28;20749;-78
2023/05/22 05:29:20;;;;;;;19.90;9.15;;;17.00;80.50;;;;;;5029926;28;20057;-78
2023/05/22 05:31:46;;;;;;;18.80;8.82;;;17.10;80.70;;;;;;5017428;28;20072;-78
2023/05/22 05:34:12;;;;;;;19.13;9.50;;;17.10;80.90;;;;;;5039676;28;20103;-78
2023/05/22 05:36:38;;;;;;;18.95;8.88;;;17.10;80.70;;;;;;5017347;28;20046;-78
2023/05/22 05:39:03;;;;;;;19.57;9.47;;;17.10;80.90;;;;;;4997830;28;20552;-79
2023/05/22 05:41:29;;;;;;;21.30;10.10;;;17.10;80.90;;;;;;5032021;28;20025;-79
2023/05/22 05:43:58;;;;;;;19.33;9.23;;;17.20;81.00;;;;;;5029755;28;20238;-78
2023/05/22 05:46:24;;;;;;;20.88;9.30;;;17.20;81.00;;;;;;5028821;28;20036;-77
2023/05/22 05:48:51;;;;;;;19.30;9.23;;;17.20;81.00;;;;;;5019603;28;20078;-78
2023/05/22 05:51:17;;;;;;;19.92;9.40;;;17.20;81.10;;;;;;5035177;28;20344;-77
2023/05/22 05:53:43;;;;;;;19.33;8.85;;;17.20;81.00;;;;;;4990661;28;20037;-77
2023/05/22 05:56:09;;;;;;;17.93;8.27;;;17.20;81.00;;;;;;5028582;28;20041;-77
2023/05/22 05:58:35;;;;;;;17.45;8.32;;;17.20;81.00;;;;;;5042275;28;20324;-77
2023/05/22 06:01:01;;;;;;;16.93;8.97;;;17.20;81.10;;;;;;5041090;28;20464;-77
2023/05/22 06:03:27;;;;;;;19.35;9.27;;;17.20;81.20;;;;;;5019219;28;20041;-79
2023/05/22 06:05:53;;;;;;;20.60;9.27;;;17.20;81.30;;;;;;5028554;28;20033;-78
2023/05/22 06:08:20;;;;;;;17.60;9.37;;;17.30;81.50;;;;;;5001798;28;20607;-78
2023/05/22 06:10:47;;;;;;;20.85;9.15;;;17.30;81.50;;;;;;5028186;28;20394;-79
2023/05/22 06:13:13;;;;;;;19.38;8.90;;;17.30;81.60;;;;;;5030746;28;21083;-81
2023/05/22 06:15:39;;;;;;;21.95;9.52;;;17.30;81.50;;;;;;5036766;28;20113;-78
2023/05/22 06:18:05;;;;;;;21.10;10.23;;;17.40;81.60;;;;;;5014045;28;20577;-76
2023/05/22 06:20:31;;;;;;;19.83;9.63;;;17.40;81.70;;;;;;5025780;28;20037;-79
2023/05/22 06:22:57;;;;;;;20.67;9.43;;;17.40;81.50;;;;;;5010600;28;20024;-78
2023/05/22 06:25:24;;;;;;;19.67;9.38;;;17.50;81.70;;;;;;5027256;28;20040;-77
2023/05/22 06:27:51;;;;;;;19.52;9.25;;;17.40;81.50;;;;;;5027691;28;20116;-78
2023/05/22 06:30:16;;;;;;;19.30;9.13;;;17.50;81.70;;;;;;5013950;28;20036;-79
2023/05/22 06:32:42;;;;;;;17.42;8.80;;;17.50;81.70;;;;;;5030464;28;20061;-78
2023/05/22 06:35:09;;;;;;;18.02;8.85;;;17.50;81.70;;;;;;5014887;28;20024;-79
2023/05/22 06:37:35;;;;;;;21.17;9.43;;;17.60;81.80;;;;;;4990631;28;20258;-79
2023/05/22 06:40:02;;;;;;;21.80;9.20;;;17.60;81.80;;;;;;5019827;28;20037;-77
2023/05/22 06:42:27;;;;;;;21.65;9.27;;;17.60;81.70;;;;;;5021141;28;20033;-77
2023/05/22 06:44:53;;;;;;;21.23;9.63;;;17.60;81.70;;;;;;5034045;28;20025;-78
2023/05/22 06:47:19;;;;;;;18.70;9.23;;;17.50;81.70;;;;;;5045000;28;20108;-77
2023/05/22 06:49:44;;;;;;;21.38;9.27;;;17.60;81.70;;;;;;5036551;28;20041;-78
2023/05/22 06:52:11;;;;;;;18.90;9.50;;;17.50;81.80;;;;;;5032002;28;20025;-79
2023/05/22 06:54:37;;;;;;;19.55;9.38;;;17.50;82.00;;;;;;5005399;28;20271;-78
2023/05/22 06:57:03;;;;;;;18.75;9.25;;;17.60;82.30;;;;;;5010834;28;20029;-78
2023/05/22 06:59:29;;;;;;;17.67;8.57;;;17.60;82.30;;;;;;5036986;28;20420;-78
2023/05/22 07:01:55;;;;;;;22.15;10.00;;;17.60;82.30;;;;;;5015060;28;20115;-79
2023/05/22 07:04:21;;;;;;;20.20;9.55;;;17.60;82.50;;;;;;5029259;28;20712;-79
2023/05/22 07:06:48;;;;;;;21.45;9.60;;;17.70;82.60;;;;;;5012852;28;20829;-79
2023/05/22 07:09:14;;;;;;;21.90;9.47;;;17.70;82.80;;;;;;5021784;28;20213;-78
2023/05/22 07:11:42;;;;;;;20.92;9.75;;;17.80;82.70;;;;;;5018603;28;20339;-80
2023/05/22 07:14:08;;;;;;;25.08;9.73;;;17.80;82.70;;;;;;5031556;28;20562;-78
2023/05/22 07:16:35;;;;;;;25.70;9.85;;;17.90;82.60;;;;;;5036792;28;20282;-78
2023/05/22 07:19:02;;;;;;;22.17;9.60;;;17.90;82.50;;;;;;5034311;28;20025;-78
2023/05/22 07:21:30;;;;;;;20.50;9.65;;;17.90;82.40;;;;;;5012269;28;20051;-78
2023/05/22 07:23:57;;;;;;;21.13;9.98;;;18.00;82.40;;;;;;5040045;28;20157;-79
2023/05/22 07:26:24;;;;;;;20.15;10.13;;;18.00;82.40;;;;;;5010793;28;20053;-80
2023/05/22 07:28:50;;;;;;;21.67;10.20;;;18.00;82.50;;;;;;5015329;28;20032;-79
2023/05/22 07:31:16;;;;;;;21.73;10.30;;;18.00;82.60;;;;;;5036537;28;20017;-78
2023/05/22 07:33:42;;;;;;;21.25;10.35;;;18.10;82.70;;;;;;5033065;28;20021;-78
2023/05/22 07:36:08;;;;;;;21.42;10.73;;;18.10;82.70;;;;;;5034664;28;20231;-78
2023/05/22 07:38:35;;;;;;;23.27;10.57;;;18.10;82.70;;;;;;5019504;28;20031;-78
2023/05/22 07:41:03;;;;;;;20.00;9.97;;;18.20;83.00;;;;;;5007504;28;20183;-79
2023/05/22 07:43:30;;;;;;;21.85;10.10;;;18.20;82.80;;;;;;5020482;28;20140;-78
2023/05/22 07:45:56;;;;;;;18.05;10.15;;;18.20;83.00;;;;;;5032104;28;20032;-79
2023/05/22 07:48:22;;;;;;;21.20;10.45;;;18.30;83.00;;;;;;5035407;28;20037;-79
2023/05/22 07:50:48;;;;;;;20.10;10.33;;;18.40;82.80;;;;;;5033818;28;20493;-78
2023/05/22 07:53:15;;;;;;;19.77;9.98;;;18.40;82.70;;;;;;5022980;28;20075;-78
2023/05/22 07:55:41;;;;;;;18.45;9.55;;;18.40;82.60;;;;;;5037140;28;20095;-79
2023/05/22 07:58:07;;;;;;;20.38;9.75;;;18.40;82.50;;;;;;5001077;28;20693;-80
2023/05/22 08:00:33;;;;;;;18.20;9.67;;;18.40;82.50;;;;;;5018927;28;20387;-79
2023/05/22 08:02:59;;;;;;;19.20;9.60;;;18.40;82.50;;;;;;5037336;28;20025;-79
2023/05/22 08:05:27;;;;;;;18.38;8.95;;;18.40;82.40;;;;;;5036321;28;20137;-79
2023/05/22 08:07:53;;;;;;;18.65;9.48;;;18.40;82.50;;;;;;5022266;28;20692;-79
2023/05/22 08:10:19;;;;;;;17.93;9.77;;;18.50;82.70;;;;;;5037515;28;20044;-79
2023/05/22 08:12:44;;;;;;;18.45;9.68;;;18.50;82.80;;;;;;5010651;28;20248;-78
2023/05/22 08:15:10;;;;;;;19.80;9.77;;;18.50;82.90;;;;;;5022761;28;20028;-77
2023/05/22 08:17:38;;;;;;;19.07;9.23;;;18.60;83.00;;;;;;5033130;28;20032;-79
2023/05/22 08:20:04;;;;;;;19.83;9.75;;;18.60;82.80;;;;;;5038740;28;20075;-79
2023/05/22 08:22:30;;;;;;;18.27;9.77;;;18.80;82.80;;;;;;5031968;28;20024;-79
2023/05/22 08:24:56;;;;;;;17.83;9.95;;;18.70;82.60;;;;;;5024286;28;20040;-78
2023/05/22 08:27:22;;;;;;;18.77;9.77;;;18.80;82.70;;;;;;5034091;28;20028;-79
2023/05/22 08:29:48;;;;;;;16.65;9.57;;;18.90;82.80;;;;;;4998396;28;23430;-78
2023/05/22 08:32:14;;;;;;;19.33;10.07;;;18.90;82.80;;;;;;5036992;28;20074;-77
2023/05/22 08:34:40;;;;;;;22.88;11.05;;;18.90;82.80;;;;;;5028040;28;20109;-80
2023/05/22 08:37:08;;;;;;;20.05;10.82;;;19.00;82.80;;;;;;5038145;28;20071;-77
2023/05/22 08:39:33;;;;;;;18.55;10.27;;;19.00;82.80;;;;;;5034937;28;20098;-79
2023/05/22 08:42:01;;;;;;;17.67;10.23;;;19.10;82.80;;;;;;5037701;28;20471;-80
2023/05/22 08:44:27;;;;;;;17.95;9.48;;;19.20;82.90;;;;;;5003182;28;20090;-79
2023/05/22 08:46:55;;;;;;;16.98;9.60;;;19.30;82.70;;;;;;5032515;28;20333;-78
2023/05/22 08:49:22;;;;;;;16.77;9.73;;;19.30;82.50;;;;;;5039728;28;20028;-78
2023/05/22 08:52:01;;;;;;;19.17;10.03;;;19.30;82.40;;;;;;5053043;28;20260;-78
2023/05/22 08:54:28;;;;;;;16.40;9.13;;;19.30;83.00;;;;;;5029893;28;20043;-79
2023/05/22 08:56:54;;;;;;;19.10;8.98;;;19.40;82.20;;;;;;5051814;28;20098;-79
2023/05/22 08:59:20;;;;;;;17.15;9.15;;;19.40;82.10;;;;;;5032270;28;20091;-79
2023/05/22 09:01:47;;;;;;;18.40;9.40;;;19.40;82.10;;;;;;5030425;28;20031;-79
2023/05/22 09:04:13;;;;;;;18.33;9.63;;;19.40;81.90;;;;;;5037766;28;20109;-79
2023/05/22 09:06:39;;;;;;;17.40;8.98;;;19.40;81.90;;;;;;5037878;28;20662;-79
2023/05/22 09:09:05;;;;;;;17.40;8.63;;;19.40;81.90;;;;;;5041191;28;20394;-80
2023/05/22 09:11:31;;;;;;;15.23;8.63;;;19.40;82.10;;;;;;5027304;28;20036;-78
2023/05/22 09:14:09;;;;;;;17.50;9.23;;;19.40;82.20;;;;;;5037854;28;20217;-79
2023/05/22 09:16:50;;;;;;;17.42;9.48;;;19.40;82.60;;;;;;4979538;28;20484;-79
2023/05/22 09:19:16;;;;;;;16.40;9.05;;;19.50;82.70;;;;;;5039972;28;20025;-79
2023/05/22 09:21:43;;;;;;;17.53;9.17;;;19.50;82.30;;;;;;5051146;28;20045;-78
2023/05/22 09:24:09;;;;;;;14.82;8.55;;;19.60;82.40;;;;;;5040520;28;20055;-79
2023/05/22 09:26:39;;;;;;;18.98;9.10;;;19.60;82.30;;;;;;5026384;28;20028;-80
2023/05/22 09:29:06;;;;;;;18.67;10.27;;;19.60;82.20;;;;;;5020818;28;20524;-78
2023/05/22 09:31:42;;;;;;;18.58;9.80;;;19.70;82.00;;;;;;5001254;28;20033;-79
2023/05/22 09:34:10;;;;;;;17.27;9.73;;;19.70;82.00;;;;;;5039082;28;20174;-78
2023/05/22 09:36:36;;;;;;;14.82;9.73;;;19.70;81.80;;;;;;5036847;28;20033;-79
2023/05/22 09:39:03;;;;;;;15.23;8.95;;;19.70;81.90;;;;;;5036623;28;20214;-78
2023/05/22 09:41:35;;;;;;;15.13;8.95;;;19.70;82.00;;;;;;5023939;28;20025;-79
2023/05/22 09:44:00;;;;;;;12.70;8.00;;;19.80;82.20;;;;;;5042383;28;20373;-77
2023/05/22 09:46:26;;;;;;;14.47;8.20;;;19.80;82.20;;;;;;5013606;28;20017;-79
2023/05/22 09:48:53;;;;;;;12.02;7.43;;;19.90;82.30;;;;;;5035876;28;20211;-78
2023/05/22 09:51:28;;;;;;;13.98;7.50;;;20.00;82.30;;;;;;5036640;28;20059;-78
2023/05/22 09:54:02;;;;;;;13.75;7.95;;;20.00;82.50;;;;;;5036568;28;20592;-79
2023/05/22 09:56:31;;;;;;;13.05;7.95;;;20.10;82.40;;;;;;5061276;28;20029;-79
2023/05/22 09:58:58;;;;;;;11.73;7.40;;;20.20;82.30;;;;;;5033905;28;20065;-77
2023/05/22 10:01:25;;;;;;;12.95;7.75;;;20.20;82.20;;;;;;5023814;28;20028;-80
2023/05/22 10:03:54;;;;;;;13.35;7.90;;;20.30;82.30;;;;;;5012891;28;20536;-78
2023/05/22 10:06:22;;;;;;;11.70;7.25;;;20.40;82.30;;;;;;5037500;28;20521;-79
2023/05/22 10:08:57;;;;;;;11.88;7.32;;;20.50;82.30;;;;;;5037549;28;20229;-78
2023/05/22 10:11:25;;;;;;;10.83;7.00;;;20.60;82.40;;;;;;5032171;28;20079;-79
2023/05/22 10:13:51;;;;;;;13.95;7.78;;;20.60;82.20;;;;;;5030654;28;20532;-79
2023/05/22 10:16:17;;;;;;;12.73;7.28;;;20.70;82.00;;;;;;5038778;28;20045;-79
2023/05/22 10:18:47;;;;;;;15.20;8.87;;;20.70;81.80;;;;;;5010591;28;20036;-79
2023/05/22 10:21:15;;;;;;;12.63;7.75;;;20.80;81.40;;;;;;5022010;28;20044;-79
2023/05/22 10:23:41;;;;;;;13.70;7.85;;;20.80;81.20;;;;;;5049159;28;20303;-78
2023/05/22 10:26:08;;;;;;;14.40;8.30;;;20.80;81.30;;;;;;5050440;28;20041;-79
2023/05/22 10:29:17;;;;;;;14.18;8.30;;;20.80;81.20;;;;;;5022016;28;20111;-79
2023/05/22 10:32:08;;;;;;;12.97;7.27;;;20.90;81.30;;;;;;5031217;28;20123;-78
2023/05/22 10:34:49;;;;;;;13.45;8.02;;;20.90;81.30;;;;;;4994829;28;20061;-80
2023/05/22 10:37:35;;;;;;;13.63;7.80;;;21.00;81.00;;;;;;5050598;28;20035;-78
2023/05/22 10:40:06;;;;;;;14.07;7.43;;;21.00;80.90;;;;;;5037614;28;20471;-78
2023/05/22 10:42:32;;;;;;;12.68;7.57;;;21.00;81.00;;;;;;5035892;28;20862;-79
2023/05/22 10:45:03;;;;;;;10.60;6.90;;;21.10;81.20;;;;;;5027254;28;20097;-79
2023/05/22 10:47:31;;;;;;;12.40;7.57;;;21.10;81.20;;;;;;5018324;28;20021;-79
2023/05/22 10:50:08;;;;;;;13.15;8.00;;;21.10;81.30;;;;;;5034080;28;20018;-78
2023/05/22 10:52:38;;;;;;;12.93;8.00;;;21.20;81.10;;;;;;5020135;28;20033;-79
2023/05/22 10:55:09;;;;;;;13.80;8.18;;;21.30;81.10;;;;;;5036188;28;20057;-80
2023/05/22 10:57:39;;;;;;;15.17;8.03;;;21.30;80.80;;;;;;5036419;28;20031;-78
2023/05/22 11:00:14;;;;;;;13.85;8.60;;;21.40;80.60;;;;;;5029085;28;20024;-80
2023/05/22 11:02:42;;;;;;;15.40;8.15;;;21.40;80.50;;;;;;5034153;28;20044;-79
2023/05/22 11:05:33;;;;;;;12.88;8.25;;;21.40;80.50;;;;;;5013658;28;20036;-79
2023/05/22 11:08:28;;;;;;;14.02;8.75;;;21.50;80.40;;;;;;5032700;28;20391;-79
2023/05/22 11:10:55;;;;;;;12.57;7.67;;;21.50;80.30;;;;;;5033824;28;20043;-80
2023/05/22 11:13:25;;;;;;;13.27;7.65;;;21.50;80.50;;;;;;5035450;28;20044;-79
2023/05/22 11:15:54;;;;;;;13.65;8.18;;;21.60;80.10;;;;;;5022330;28;20119;-79
2023/05/22 11:18:19;;;;;;;12.05;7.65;;;21.50;80.00;;;;;;5033562;28;20021;-79
2023/05/22 11:20:46;;;;;;;16.60;8.33;;;21.50;80.20;;;;;;5008553;28;20672;-79
2023/05/22 11:23:11;;;;;;;14.07;8.73;;;21.50;80.50;;;;;;5021091;28;20048;-78
2023/05/22 11:25:39;;;;;;;14.82;7.72;;;21.60;80.70;;;;;;5033436;28;20025;-79
2023/05/22 11:28:06;;;;;;;13.15;8.02;;;21.70;81.00;;;;;;5035170;28;20025;-79
2023/05/22 11:30:33;;;;;;;13.23;7.47;;;21.80;81.20;;;;;;5026885;28;20114;-79
2023/05/22 11:33:00;;;;;;;11.00;7.35;;;21.90;80.90;;;;;;5034320;28;20029;-80
2023/05/22 11:35:27;;;;;;;13.00;7.68;;;22.00;80.50;;;;;;4994763;28;20028;-79
2023/05/22 11:37:53;;;;;;;12.85;7.38;;;22.10;80.40;;;;;;5019183;28;20040;-78
2023/05/22 11:40:23;;;;;;;13.02;7.43;;;22.20;80.50;;;;;;5036120;28;20013;-79
2023/05/22 11:42:49;;;;;;;13.17;7.80;;;22.30;80.60;;;;;;5016639;28;20145;-79
2023/05/22 11:45:16;;;;;;;13.60;7.75;;;22.40;80.40;;;;;;5038527;28;20063;-78
2023/05/22 11:47:43;;;;;;;13.15;8.00;;;22.50;80.30;;;;;;5023950;28;20044;-77
2023/05/22 11:50:10;;;;;;;14.48;8.15;;;22.60;80.20;;;;;;5032178;28;20040;-79
2023/05/22 11:52:38;;;;;;;14.00;7.90;;;22.70;80.30;;;;;;5007382;28;20056;-79
2023/05/22 11:55:05;;;;;;;12.90;7.87;;;22.80;80.00;;;;;;5023861;28;20037;-78
2023/05/22 11:57:31;;;;;;;11.75;6.75;;;22.90;79.70;;;;;;5032464;28;20236;-80
2023/05/22 12:00:01;;;;;;;11.23;6.43;;;23.00;79.80;;;;;;5050548;28;20024;-79
2023/05/22 12:02:27;;;;;;;12.45;7.40;;;23.10;79.70;;;;;;5024204;28;20041;-79
2023/05/22 12:04:56;;;;;;;12.03;7.27;;;23.20;80.00;;;;;;5017594;28;20514;-79
2023/05/22 12:07:24;;;;;;;11.43;6.90;;;23.40;79.40;;;;;;5012641;28;20051;-78
2023/05/22 12:09:50;;;;;;;10.75;6.78;;;23.50;79.50;;;;;;5023948;28;20502;-79
2023/05/22 12:12:17;;;;;;;10.45;6.50;;;23.60;79.50;;;;;;5036188;28;20098;-79
2023/05/22 12:14:47;;;;;;;10.27;6.87;;;23.80;79.90;;;;;;5032972;28;20520;-79
2023/05/22 12:17:14;;;;;;;9.32;6.38;;;24.00;79.30;;;;;;5036704;28;20483;-79
2023/05/22 12:19:43;;;;;;;10.93;6.60;;;24.20;80.40;;;;;;5023865;28;20522;-79
2023/05/22 12:22:11;;;;;;;10.77;6.53;;;24.30;79.20;;;;;;5010766;28;20451;-78
2023/05/22 12:24:39;;;;;;;10.88;6.85;;;24.50;78.60;;;;;;5022688;28;20446;-79
2023/05/22 12:27:11;;;;;;;10.03;6.30;;;24.60;78.10;;;;;;5036605;28;20146;-79
2023/05/22 12:29:38;;;;;;;8.95;6.45;;;24.70;77.60;;;;;;5035531;28;20331;-78
2023/05/22 12:32:11;;;;;;;10.82;6.05;;;24.70;77.60;;;;;;5037814;28;20693;-78
2023/05/22 12:34:46;;;;;;;10.70;6.50;;;24.80;77.30;;;;;;5023510;28;20310;-79
2023/05/22 12:37:17;;;;;;;10.38;6.45;;;24.90;76.60;;;;;;5044352;28;20543;-79
2023/05/22 12:39:59;;;;;;;10.37;6.07;;;25.00;76.80;;;;;;5039042;28;20576;-79
2023/05/22 12:42:26;;;;;;;14.30;7.90;;;25.10;76.40;;;;;;5037035;28;20025;-77